Time;durP1;ratioP1;P1;durP2;ratioP2;P2;SDS_P1;SDS_P2;PMS_P1;PMS_P2;Temp;Humidity;BMP_temperature;BMP_pressure;BME280_temperature;BME280_humidity;BME280_pressure;Samples;Min_cycle;Max_cycle;Signal;HPM_P1;HPM_P2
2022/12/30 07:02:27;;;;;;;17.60;6.97;;;3.40;99.90;;;;;;5068995;28;20353;-63
2022/12/30 07:04:53;;;;;;;19.23;7.38;;;3.50;99.90;;;;;;5067856;28;20140;-63
2022/12/30 07:07:18;;;;;;;9.38;5.32;;;3.60;99.90;;;;;;5068876;28;20024;-63
2022/12/30 07:09:44;;;;;;;18.90;5.28;;;3.60;99.90;;;;;;5069198;28;20032;-63
2022/12/30 07:12:10;;;;;;;20.38;5.28;;;3.80;99.90;;;;;;5068351;28;20382;-64
2022/12/30 07:14:35;;;;;;;13.15;4.88;;;3.80;99.90;;;;;;5069046;28;20025;-64
2022/12/30 07:17:01;;;;;;;12.93;4.28;;;3.90;99.90;;;;;;5066625;28;20029;-63
2022/12/30 07:19:27;;;;;;;10.65;4.88;;;3.90;99.90;;;;;;5049650;28;20104;-63
2022/12/30 07:21:53;;;;;;;13.85;4.47;;;4.00;99.90;;;;;;5047928;28;20454;-64
2022/12/30 07:24:19;;;;;;;10.30;4.95;;;4.00;99.90;;;;;;5048541;28;20075;-63
2022/12/30 07:26:45;;;;;;;10.05;5.78;;;4.10;99.90;;;;;;5048539;28;20021;-64
2022/12/30 07:29:12;;;;;;;13.82;7.75;;;4.10;99.90;;;;;;5049035;28;20378;-64
2022/12/30 07:31:39;;;;;;;17.30;7.30;;;4.10;99.90;;;;;;5046685;28;20052;-64
2022/12/30 07:34:05;;;;;;;12.48;5.57;;;4.20;99.90;;;;;;5048882;28;20024;-64
2022/12/30 07:36:30;;;;;;;17.00;6.63;;;4.20;99.90;;;;;;5051080;28;20036;-63
2022/12/30 07:38:57;;;;;;;9.38;4.63;;;4.30;99.90;;;;;;5060725;28;20096;-64
2022/12/30 07:41:24;;;;;;;9.45;4.28;;;4.30;99.90;;;;;;5068052;28;20679;-64
2022/12/30 07:43:49;;;;;;;21.08;5.18;;;4.30;99.90;;;;;;5049359;28;20122;-64
2022/12/30 07:46:15;;;;;;;10.70;4.40;;;4.30;99.90;;;;;;5048021;28;20490;-64
2022/12/30 07:48:41;;;;;;;11.70;3.80;;;4.40;99.90;;;;;;5048247;28;20026;-63
2022/12/30 07:51:13;;;;;;;17.65;5.60;;;4.40;99.90;;;;;;5048766;28;20143;-63
2022/12/30 07:53:39;;;;;;;14.73;6.53;;;4.40;99.90;;;;;;5047664;28;20029;-63
2022/12/30 07:56:05;;;;;;;12.80;4.78;;;4.40;99.90;;;;;;5068286;28;20031;-64
2022/12/30 07:58:31;;;;;;;13.00;5.28;;;4.50;99.90;;;;;;5068045;28;20104;-63
2022/12/30 08:00:57;;;;;;;12.15;4.07;;;4.50;99.90;;;;;;5066462;28;20090;-64
2022/12/30 08:03:23;;;;;;;12.52;4.60;;;4.50;99.90;;;;;;5067963;28;20025;-63
2022/12/30 08:05:48;;;;;;;12.05;4.43;;;4.60;99.90;;;;;;5068325;28;20017;-63
2022/12/30 08:08:14;;;;;;;16.17;6.28;;;4.60;99.90;;;;;;5067573;28;20393;-63
2022/12/30 08:10:40;;;;;;;15.15;5.40;;;4.60;99.90;;;;;;5065944;28;20025;-64
2022/12/30 08:13:05;;;;;;;14.88;7.35;;;4.60;99.90;;;;;;5046951;28;20029;-64
2022/12/30 08:15:31;;;;;;;15.52;7.32;;;4.70;99.90;;;;;;5038253;28;20536;-64
2022/12/30 08:17:56;;;;;;;20.33;7.93;;;4.70;99.90;;;;;;5038928;28;20524;-64
2022/12/30 08:20:22;;;;;;;10.60;6.30;;;4.80;99.90;;;;;;5047663;28;20033;-64
2022/12/30 08:22:48;;;;;;;17.92;7.25;;;4.80;99.90;;;;;;5053499;28;20382;-63
2022/12/30 08:25:13;;;;;;;18.83;6.72;;;4.90;99.90;;;;;;5033344;28;20021;-64
2022/12/30 08:27:39;;;;;;;13.30;6.40;;;4.90;99.90;;;;;;5039112;28;20099;-63
2022/12/30 08:30:05;;;;;;;13.65;6.32;;;5.00;99.90;;;;;;5043274;28;20116;-63
2022/12/30 08:32:31;;;;;;;14.25;6.93;;;5.00;99.90;;;;;;5042972;28;20376;-63
2022/12/30 08:34:57;;;;;;;15.82;7.30;;;5.10;99.90;;;;;;5041514;28;20025;-63
2022/12/30 08:37:22;;;;;;;12.05;5.15;;;5.10;99.90;;;;;;5039030;28;20465;-64
2022/12/30 08:39:48;;;;;;;10.20;5.97;;;5.20;99.90;;;;;;5041250;28;20021;-64
2022/12/30 08:42:14;;;;;;;12.05;6.15;;;5.20;99.90;;;;;;5041368;28;20068;-64
2022/12/30 08:44:40;;;;;;;11.98;5.50;;;5.30;99.90;;;;;;5043846;28;20060;-65
2022/12/30 08:47:05;;;;;;;16.23;6.10;;;5.30;99.90;;;;;;5053588;28;20086;-63
2022/12/30 08:49:31;;;;;;;19.50;5.63;;;5.40;99.90;;;;;;5040912;28;20021;-64
2022/12/30 08:51:56;;;;;;;15.13;6.05;;;5.40;99.90;;;;;;5044230;28;20516;-63
2022/12/30 08:54:22;;;;;;;11.50;5.30;;;5.40;99.90;;;;;;5053489;28;20096;-64
2022/12/30 08:56:48;;;;;;;11.27;5.22;;;5.50;99.90;;;;;;5053033;28;20108;-63
2022/12/30 08:59:14;;;;;;;11.57;4.82;;;5.50;99.90;;;;;;5048591;28;20460;-64
2022/12/30 09:01:40;;;;;;;13.65;5.43;;;5.50;99.90;;;;;;5065487;28;20155;-64
2022/12/30 09:04:08;;;;;;;9.20;5.03;;;5.60;99.90;;;;;;5061534;28;20013;-64
2022/12/30 09:06:35;;;;;;;11.48;5.13;;;5.60;99.90;;;;;;5073400;28;20024;-64
2022/12/30 09:09:03;;;;;;;12.38;5.00;;;5.60;99.90;;;;;;5063606;28;20071;-64
2022/12/30 09:11:31;;;;;;;12.98;5.07;;;5.70;99.90;;;;;;5061976;28;20025;-63
2022/12/30 09:14:02;;;;;;;13.60;4.25;;;5.70;99.90;;;;;;5059033;28;20017;-64
2022/12/30 09:16:29;;;;;;;8.60;4.75;;;5.70;99.90;;;;;;5059441;28;20037;-64
2022/12/30 09:18:55;;;;;;;30.13;11.95;;;5.80;99.90;;;;;;5060922;28;20015;-64
2022/12/30 09:21:21;;;;;;;17.88;5.38;;;5.80;99.90;;;;;;5040843;28;20132;-64
2022/12/30 09:23:48;;;;;;;8.23;4.85;;;5.90;99.90;;;;;;5034894;28;20127;-64
2022/12/30 09:26:16;;;;;;;9.55;4.28;;;5.90;99.90;;;;;;5052396;28;20029;-64
2022/12/30 09:28:42;;;;;;;10.60;3.25;;;6.00;99.90;;;;;;5038267;28;20024;-63
2022/12/30 09:31:08;;;;;;;9.70;5.43;;;6.00;99.90;;;;;;5072880;28;20032;-64
2022/12/30 09:33:33;;;;;;;7.93;4.38;;;6.00;99.90;;;;;;5066122;28;20068;-63
2022/12/30 09:35:59;;;;;;;11.25;5.22;;;6.00;99.90;;;;;;5035343;28;20021;-63
2022/12/30 09:38:25;;;;;;;16.20;4.97;;;6.10;99.90;;;;;;5072156;28;20032;-63
2022/12/30 09:41:19;;;;;;;8.65;3.85;;;6.10;99.90;;;;;;5073149;28;20032;-63
2022/12/30 09:44:07;;;;;;;8.65;3.75;;;6.10;99.90;;;;;;5059345;28;20206;-63
2022/12/30 09:46:49;;;;;;;14.05;4.20;;;6.20;99.90;;;;;;5070307;28;20078;-63
2022/12/30 09:49:32;;;;;;;7.70;3.60;;;6.20;99.90;;;;;;5063834;28;20067;-63
2022/12/30 09:52:05;;;;;;;10.10;4.20;;;6.30;99.90;;;;;;5052646;28;20036;-63
2022/12/30 09:54:34;;;;;;;11.63;4.40;;;6.30;99.90;;;;;;5066354;28;20104;-63
2022/12/30 09:57:30;;;;;;;7.22;3.42;;;6.30;99.90;;;;;;5053717;28;20017;-63
2022/12/30 09:59:56;;;;;;;10.65;3.88;;;6.30;99.90;;;;;;5054662;28;20028;-63
2022/12/30 10:02:27;;;;;;;6.75;3.50;;;6.40;99.90;;;;;;5055289;28;20135;-63
2022/12/30 10:04:58;;;;;;;11.95;4.40;;;6.40;99.90;;;;;;5054273;28;20025;-63
2022/12/30 10:07:27;;;;;;;;;;;6.50;99.90;;;;;;5037475;28;20116;-63
2022/12/30 10:10:16;;;;;;;8.25;3.95;;;6.50;99.90;;;;;;5052570;28;19912;-63
2022/12/30 10:12:53;;;;;;;11.50;2.72;;;6.60;99.90;;;;;;5034224;28;20033;-63
2022/12/30 10:15:32;;;;;;;9.05;3.20;;;6.60;99.90;;;;;;5050510;28;20021;-62
2022/12/30 10:18:24;;;;;;;6.65;3.25;;;6.70;99.90;;;;;;5051836;28;20036;-62
2022/12/30 10:21:10;;;;;;;;;;;6.70;99.90;;;;;;5040685;28;20150;-63
2022/12/30 10:23:48;;;;;;;6.47;2.78;;;6.80;99.90;;;;;;5037920;28;19905;-63
2022/12/30 10:26:24;;;;;;;6.95;3.38;;;6.80;99.90;;;;;;5052217;28;20289;-63
2022/12/30 10:29:04;;;;;;;8.00;3.22;;;6.90;99.90;;;;;;5051179;28;20067;-63
2022/12/30 10:31:34;;;;;;;6.30;2.53;;;6.90;99.90;;;;;;5051774;28;20029;-62
2022/12/30 10:34:15;;;;;;;7.60;2.60;;;7.00;99.90;;;;;;5055433;28;20070;-62
2022/12/30 10:37:02;;;;;;;7.70;2.70;;;7.00;99.90;;;;;;5070904;28;20089;-62
2022/12/30 10:39:36;;;;;;;6.22;2.70;;;7.00;99.90;;;;;;5067647;28;20083;-63
2022/12/30 10:42:23;;;;;;;9.00;3.30;;;7.10;99.90;;;;;;5058918;28;20033;-63
2022/12/30 10:45:19;;;;;;;6.97;2.53;;;7.20;99.90;;;;;;5067011;28;20461;-63
2022/12/30 10:48:00;;;;;;;6.43;2.95;;;7.20;99.90;;;;;;5038550;28;20057;-63
2022/12/30 10:50:37;;;;;;;11.45;4.03;;;7.20;99.90;;;;;;5062826;28;20029;-62
2022/12/30 10:53:06;;;;;;;8.52;2.70;;;7.30;99.90;;;;;;5051943;28;20021;-62
2022/12/30 10:55:34;;;;;;;6.72;3.40;;;7.30;99.90;;;;;;5056827;28;20024;-63
2022/12/30 10:58:11;;;;;;;10.00;2.50;;;7.40;99.90;;;;;;5034145;28;20428;-62
2022/12/30 11:00:40;;;;;;;5.13;1.90;;;7.50;99.90;;;;;;5056867;28;20056;-62
2022/12/30 11:03:25;;;;;;;5.20;1.98;;;7.50;99.90;;;;;;5058671;28;20075;-62
2022/12/30 11:05:51;;;;;;;8.88;2.13;;;7.60;99.90;;;;;;5051313;28;20025;-62
2022/12/30 11:08:34;;;;;;;3.92;1.50;;;7.60;99.90;;;;;;5033628;28;20021;-62
2022/12/30 11:11:03;;;;;;;3.45;2.40;;;7.60;99.90;;;;;;5050873;28;20048;-63
2022/12/30 11:16:15;;;;;;;5.15;2.58;;;7.70;99.90;;;;;;5051303;28;20036;-63
2022/12/30 11:18:44;;;;;;;5.63;1.95;;;7.70;99.90;;;;;;5050425;28;20481;-63
2022/12/30 11:21:11;;;;;;;4.22;2.10;;;7.80;99.90;;;;;;5059670;28;20476;-63
2022/12/30 11:23:38;;;;;;;5.78;2.45;;;7.80;99.90;;;;;;5071341;28;20091;-63
2022/12/30 11:26:17;;;;;;;5.03;1.80;;;7.80;99.90;;;;;;5059290;28;20495;-63
2022/12/30 11:28:49;;;;;;;3.05;1.33;;;7.80;99.90;;;;;;5051365;28;20104;-63
2022/12/30 11:31:16;;;;;;;9.13;1.80;;;7.90;99.90;;;;;;5051223;28;20112;-63
2022/12/30 11:33:52;;;;;;;1.52;1.10;;;7.90;99.90;;;;;;5051166;28;20017;-63
2022/12/30 11:36:31;;;;;;;5.15;1.90;;;8.00;99.90;;;;;;5054148;28;20032;-63
2022/12/30 11:39:05;;;;;;;3.45;1.73;;;8.00;99.90;;;;;;5055204;28;20036;-63
2022/12/30 11:41:54;;;;;;;8.57;2.17;;;8.00;99.90;;;;;;5051263;28;20041;-63
2022/12/30 11:44:25;;;;;;;4.65;1.65;;;8.00;99.90;;;;;;5051147;28;20024;-63
2022/12/30 11:46:54;;;;;;;6.90;1.80;;;8.10;99.90;;;;;;5056434;28;20438;-63
2022/12/30 11:49:47;;;;;;;6.13;1.77;;;8.10;99.90;;;;;;5063637;28;20012;-63
2022/12/30 11:52:19;;;;;;;3.92;1.83;;;8.10;99.90;;;;;;5056654;28;20115;-63
2022/12/30 11:54:45;;;;;;;6.50;1.58;;;8.10;99.90;;;;;;5059985;28;20108;-63
2022/12/30 11:57:30;;;;;;;3.72;1.67;;;8.10;99.90;;;;;;5063953;28;20450;-63
2022/12/30 12:00:24;;;;;;;3.65;1.55;;;8.10;99.90;;;;;;5071561;28;20023;-63
2022/12/30 12:03:01;;;;;;;5.00;2.05;;;8.20;99.90;;;;;;5055489;28;20455;-63
2022/12/30 12:05:42;;;;;;;6.72;1.60;;;8.20;99.90;;;;;;5074685;28;20028;-63
2022/12/30 12:08:22;;;;;;;6.47;1.88;;;8.20;99.90;;;;;;5074392;28;20020;-63
2022/12/30 12:11:00;;;;;;;6.35;1.98;;;8.20;99.90;;;;;;5060841;28;20040;-64
2022/12/30 12:13:40;;;;;;;4.32;1.52;;;8.20;99.90;;;;;;5053693;28;20024;-63
2022/12/30 12:16:10;;;;;;;5.05;1.65;;;8.20;99.90;;;;;;5054032;28;20397;-64
2022/12/30 12:18:54;;;;;;;7.85;1.90;;;8.30;99.90;;;;;;5036683;28;20095;-63
2022/12/30 12:21:28;;;;;;;6.07;1.80;;;8.20;99.90;;;;;;5052380;28;20127;-63
2022/12/30 12:24:16;;;;;;;4.82;1.83;;;8.30;99.90;;;;;;5054749;28;20493;-63
2022/12/30 12:27:12;;;;;;;4.57;1.33;;;8.30;99.90;;;;;;5054616;28;20028;-64
2022/12/30 12:29:38;;;;;;;9.02;2.17;;;8.30;99.90;;;;;;5068364;28;20021;-64
2022/12/30 12:32:25;;;;;;;3.25;2.00;;;8.30;99.90;;;;;;5053167;28;20046;-64
2022/12/30 12:35:03;;;;;;;4.20;2.22;;;8.40;99.90;;;;;;5054687;28;20025;-64
2022/12/30 12:37:59;;;;;;;7.07;1.80;;;8.40;99.90;;;;;;5054098;28;20041;-64
2022/12/30 12:40:45;;;;;;;2.60;1.35;;;8.40;99.90;;;;;;5054516;28;20031;-64
2022/12/30 12:43:21;;;;;;;3.25;1.60;;;8.40;99.90;;;;;;5057320;28;20025;-64
2022/12/30 12:46:07;;;;;;;2.03;1.40;;;8.50;99.90;;;;;;5073888;28;20118;-64
2022/12/30 12:48:40;;;;;;;5.15;1.40;;;8.50;99.90;;;;;;5055506;28;20031;-64
2022/12/30 12:51:23;;;;;;;6.35;1.70;;;8.50;99.90;;;;;;5074199;28;20017;-64
2022/12/30 12:54:04;;;;;;;4.88;1.67;;;8.50;99.90;;;;;;5073535;28;20051;-64
2022/12/30 12:56:54;;;;;;;7.95;1.95;;;8.60;99.90;;;;;;5055888;28;20025;-64
2022/12/30 12:59:41;;;;;;;4.90;1.67;;;8.60;99.90;;;;;;5046413;28;20131;-64
2022/12/30 13:02:24;;;;;;;6.80;1.20;;;8.60;99.90;;;;;;5051879;28;20051;-62
2022/12/30 13:05:27;;;;;;;4.63;1.70;;;8.70;99.90;;;;;;5061499;28;20397;-63
2022/12/30 13:08:12;;;;;;;4.53;1.90;;;8.70;99.90;;;;;;5052015;28;20037;-63
2022/12/30 13:10:50;;;;;;;3.47;1.65;;;8.80;99.90;;;;;;5056064;28;20025;-62
2022/12/30 13:13:23;;;;;;;8.05;2.53;;;8.70;99.90;;;;;;5055136;28;20104;-63
2022/12/30 13:16:02;;;;;;;8.70;2.10;;;8.70;99.90;;;;;;5051644;28;20561;-63
2022/12/30 13:18:30;;;;;;;3.10;1.67;;;8.70;99.90;;;;;;5051318;28;20023;-63
2022/12/30 13:21:00;;;;;;;9.65;2.50;;;8.70;99.90;;;;;;5052912;28;20410;-61
2022/12/30 13:23:29;;;;;;;4.72;2.08;;;8.70;99.90;;;;;;5052429;28;20090;-61
2022/12/30 13:26:02;;;;;;;4.15;1.55;;;8.70;99.90;;;;;;5053575;28;20067;-63
2022/12/30 13:28:30;;;;;;;7.03;1.60;;;8.60;99.90;;;;;;5052643;28;20032;-63
2022/12/30 13:31:20;;;;;;;5.90;1.73;;;8.60;99.90;;;;;;5035536;28;20044;-63
2022/12/30 13:34:02;;;;;;;5.78;2.00;;;8.60;99.90;;;;;;5053438;28;20025;-63
2022/12/30 13:36:47;;;;;;;3.33;1.42;;;8.60;99.90;;;;;;5052598;28;20387;-63
2022/12/30 13:39:33;;;;;;;4.82;1.55;;;8.60;99.90;;;;;;5053447;28;20036;-63
2022/12/30 13:42:29;;;;;;;6.43;1.50;;;8.60;99.90;;;;;;5053242;28;20450;-63
2022/12/30 13:44:55;;;;;;;6.22;1.50;;;8.60;99.90;;;;;;5053072;28;20033;-63
2022/12/30 13:47:27;;;;;;;4.88;1.85;;;8.60;99.90;;;;;;5052985;28;20100;-63
2022/12/30 13:49:52;;;;;;;3.42;1.58;;;8.60;99.90;;;;;;5034658;28;20940;-63
2022/12/30 13:52:24;;;;;;;5.40;1.85;;;8.60;99.90;;;;;;5052878;28;20063;-63
2022/12/30 13:54:52;;;;;;;3.38;1.60;;;8.60;99.90;;;;;;5052754;28;20520;-64
2022/12/30 13:57:51;;;;;;;7.30;1.88;;;8.70;99.90;;;;;;5051916;28;20474;-63
2022/12/30 14:00:20;;;;;;;3.95;1.60;;;8.70;99.90;;;;;;5034149;28;20041;-63
2022/12/30 14:02:57;;;;;;;4.57;1.60;;;8.60;99.90;;;;;;5052862;28;20025;-63
2022/12/30 14:05:39;;;;;;;5.53;1.88;;;8.60;99.90;;;;;;5052146;28;20028;-61
2022/12/30 14:08:24;;;;;;;6.00;1.55;;;8.60;99.90;;;;;;5052638;28;20439;-61
2022/12/30 14:10:59;;;;;;;4.35;1.80;;;8.60;99.90;;;;;;5001250;28;20044;-63
2022/12/30 14:13:29;;;;;;;4.70;1.88;;;8.50;99.90;;;;;;5052456;28;20029;-63
2022/12/30 14:16:29;;;;;;;6.55;1.85;;;8.50;99.90;;;;;;5052909;28;20595;-63
2022/12/30 14:18:55;;;;;;;5.30;1.98;;;8.50;99.90;;;;;;5034268;28;20029;-63
2022/12/30 14:21:42;;;;;;;5.03;2.15;;;8.50;99.90;;;;;;5052060;28;20079;-63
2022/12/30 14:24:37;;;;;;;7.25;3.35;;;8.50;99.90;;;;;;5052422;28;20024;-63
2022/12/30 14:27:03;;;;;;;10.10;2.88;;;8.50;99.90;;;;;;5040792;28;20504;-63
2022/12/30 14:29:32;;;;;;;4.97;2.50;;;8.50;99.90;;;;;;5052157;28;20049;-63
2022/12/30 14:32:02;;;;;;;7.90;2.75;;;8.40;99.90;;;;;;5051749;28;20033;-63
2022/12/30 14:34:37;;;;;;;6.30;2.65;;;8.40;99.90;;;;;;5034140;28;20052;-63
2022/12/30 14:37:08;;;;;;;7.93;2.97;;;8.40;99.90;;;;;;5052581;28;20474;-63
2022/12/30 14:39:34;;;;;;;;;;;8.40;99.90;;;;;;5051507;28;20031;-63
2022/12/30 14:42:03;;;;;;;6.30;2.72;;;8.40;99.90;;;;;;5052123;28;19913;-63
2022/12/30 14:44:32;;;;;;;8.57;2.55;;;8.40;99.90;;;;;;5033850;28;20093;-64
2022/12/30 14:47:05;;;;;;;7.25;3.35;;;8.30;99.90;;;;;;5051552;28;20163;-63
2022/12/30 14:49:41;;;;;;;6.63;2.47;;;8.30;99.90;;;;;;5051924;28;20059;-63
2022/12/30 14:52:09;;;;;;;7.55;2.80;;;8.30;99.90;;;;;;5052118;28;20048;-65
2022/12/30 14:54:39;;;;;;;7.40;3.92;;;8.30;99.90;;;;;;5051977;28;20021;-63
2022/12/30 14:57:17;;;;;;;6.18;3.10;;;8.30;99.90;;;;;;5051621;28;20404;-63
2022/12/30 14:59:51;;;;;;;7.28;3.80;;;8.30;99.90;;;;;;5060663;28;20070;-63
2022/12/30 15:02:39;;;;;;;5.63;2.50;;;8.30;99.90;;;;;;5051182;28;20387;-62
2022/12/30 15:05:26;;;;;;;4.97;2.72;;;8.30;99.90;;;;;;5035039;28;20037;-63
2022/12/30 15:07:57;;;;;;;6.88;3.33;;;8.30;99.90;;;;;;5033694;28;20493;-63
2022/12/30 15:10:23;;;;;;;6.60;2.55;;;8.30;99.90;;;;;;5051369;28;20051;-61
2022/12/30 15:12:48;;;;;;;6.10;2.80;;;8.30;99.90;;;;;;5051972;28;20492;-62
2022/12/30 15:15:25;;;;;;;6.50;2.63;;;8.30;99.90;;;;;;5040677;28;20055;-63
2022/12/30 15:17:50;;;;;;;10.60;3.50;;;8.30;99.90;;;;;;5071659;28;20025;-63
2022/12/30 15:20:26;;;;;;;6.40;3.35;;;8.30;99.90;;;;;;5053760;28;20464;-62
2022/12/30 15:22:52;;;;;;;5.32;3.35;;;8.40;99.90;;;;;;5072236;28;20111;-60
2022/12/30 15:25:21;;;;;;;7.63;4.05;;;8.30;99.90;;;;;;5062843;28;20243;-63
2022/12/30 15:27:57;;;;;;;9.15;4.82;;;8.40;99.90;;;;;;5075539;28;20047;-64
2022/12/30 15:30:24;;;;;;;9.95;6.13;;;8.40;99.90;;;;;;5072397;28;20436;-62
2022/12/30 15:33:06;;;;;;;8.27;4.85;;;8.40;99.90;;;;;;5074892;28;20095;-61
2022/12/30 15:35:36;;;;;;;8.02;4.03;;;8.40;99.90;;;;;;5061901;28;20162;-61
2022/12/30 15:38:03;;;;;;;11.02;5.80;;;8.40;99.90;;;;;;5065544;28;20362;-61
2022/12/30 15:40:31;;;;;;;11.05;5.95;;;8.50;99.90;;;;;;5065834;28;20021;-62
2022/12/30 15:43:04;;;;;;;9.93;4.90;;;8.50;99.90;;;;;;5054517;28;20024;-64
2022/12/30 15:45:36;;;;;;;11.00;4.07;;;8.50;99.90;;;;;;5040136;28;20025;-61
2022/12/30 15:48:02;;;;;;;;;;;8.50;99.90;;;;;;5066791;28;20385;-62
2022/12/30 15:50:35;;;;;;;8.20;4.97;;;8.60;99.90;;;;;;5074281;28;19923;-61
2022/12/30 15:53:05;;;;;;;11.82;6.07;;;8.50;99.90;;;;;;5055807;28;20504;-61
2022/12/30 15:55:39;;;;;;;9.35;5.53;;;8.60;99.90;;;;;;5055093;28;20029;-62
2022/12/30 15:58:08;;;;;;;10.48;6.95;;;8.50;99.90;;;;;;5036546;28;20107;-60
2022/12/30 16:00:34;;;;;;;8.57;4.82;;;8.60;99.90;;;;;;5054472;28;20044;-60
2022/12/30 16:03:00;;;;;;;7.18;4.78;;;8.60;99.90;;;;;;5055564;28;20064;-60
2022/12/30 16:05:36;;;;;;;6.60;3.97;;;8.70;99.90;;;;;;5056104;28;20028;-61
2022/12/30 16:08:12;;;;;;;8.27;5.00;;;8.70;99.90;;;;;;5074709;28;20024;-61
2022/12/30 16:10:38;;;;;;;11.05;7.30;;;8.70;99.90;;;;;;5074037;28;20025;-61
2022/12/30 16:13:29;;;;;;;10.73;6.63;;;8.80;99.90;;;;;;5074630;28;20469;-61
2022/12/30 16:16:00;;;;;;;9.73;5.75;;;8.80;99.90;;;;;;5056691;28;20461;-61
2022/12/30 16:18:26;;;;;;;7.05;4.47;;;8.80;99.90;;;;;;5058553;28;20060;-61
2022/12/30 16:20:55;;;;;;;8.52;4.63;;;8.80;99.90;;;;;;5056042;28;20406;-59
2022/12/30 16:23:23;;;;;;;9.40;5.82;;;8.90;99.90;;;;;;5051749;28;20436;-61
2022/12/30 16:25:51;;;;;;;8.32;5.20;;;8.90;99.90;;;;;;5054719;28;20079;-61
2022/12/30 16:28:38;;;;;;;8.32;5.53;;;9.00;99.90;;;;;;5036646;28;20021;-61
2022/12/30 16:31:09;;;;;;;7.35;4.75;;;9.00;99.90;;;;;;5058497;28;20021;-61
2022/12/30 16:33:35;;;;;;;7.53;5.07;;;9.10;99.90;;;;;;5052614;28;20068;-61
2022/12/30 16:36:04;;;;;;;6.68;4.63;;;9.10;99.90;;;;;;5054362;28;20056;-62
2022/12/30 16:38:39;;;;;;;6.78;4.32;;;9.10;99.90;;;;;;5036883;28;20040;-63
2022/12/30 16:41:06;;;;;;;5.47;3.78;;;9.20;99.90;;;;;;5032874;28;20055;-62
2022/12/30 16:43:32;;;;;;;8.63;5.20;;;9.20;99.90;;;;;;5055582;28;20089;-62
2022/12/30 16:45:57;;;;;;;6.45;4.00;;;9.30;99.90;;;;;;5052444;28;20090;-66
2022/12/30 16:48:23;;;;;;;5.78;3.97;;;9.30;99.90;;;;;;5066789;28;20020;-61
2022/12/30 16:50:49;;;;;;;10.23;5.75;;;9.30;99.90;;;;;;5037704;28;20025;-62
2022/12/30 16:53:34;;;;;;;5.90;3.95;;;9.40;99.90;;;;;;5056767;28;20048;-61
2022/12/30 16:56:00;;;;;;;5.85;3.97;;;9.40;99.90;;;;;;5054268;28;20036;-62
2022/12/30 16:58:25;;;;;;;6.90;4.40;;;9.40;99.90;;;;;;5058125;28;20070;-62
2022/12/30 17:00:54;;;;;;;7.80;5.20;;;9.40;99.90;;;;;;5052632;28;20043;-63
2022/12/30 17:03:24;;;;;;;10.43;6.90;;;9.40;99.90;;;;;;5055531;28;20025;-62
2022/12/30 17:05:50;;;;;;;9.13;6.00;;;9.50;99.90;;;;;;5052976;28;20079;-62
2022/12/30 17:08:27;;;;;;;9.57;5.82;;;9.50;99.90;;;;;;5034328;28;20410;-63
2022/12/30 17:11:15;;;;;;;7.75;4.88;;;9.50;99.90;;;;;;5055866;28;20656;-61
2022/12/30 17:13:44;;;;;;;7.30;4.80;;;9.50;99.90;;;;;;5052193;28;20032;-62
2022/12/30 17:16:17;;;;;;;8.07;5.40;;;9.60;99.90;;;;;;5038745;28;20500;-60
2022/12/30 17:18:43;;;;;;;6.25;4.47;;;9.60;99.90;;;;;;5063206;28;20128;-62
2022/12/30 17:21:09;;;;;;;8.10;5.35;;;9.60;99.90;;;;;;5063233;28;20025;-63
2022/12/30 17:23:43;;;;;;;10.32;6.18;;;9.60;99.90;;;;;;5067701;28;20027;-61
2022/12/30 17:26:12;;;;;;;62.03;21.80;;;9.70;99.90;;;;;;5052486;28;20029;-62
2022/12/30 17:28:38;;;;;;;38.83;16.05;;;9.70;99.90;;;;;;5058361;28;20033;-62
2022/12/30 17:31:04;;;;;;;11.40;6.28;;;9.70;99.90;;;;;;5072318;28;20552;-62
2022/12/30 17:33:30;;;;;;;9.73;5.30;;;9.80;99.90;;;;;;5072554;28;20032;-62
2022/12/30 17:35:56;;;;;;;7.53;4.80;;;9.80;99.90;;;;;;5062740;28;20107;-63
2022/12/30 17:38:22;;;;;;;8.38;5.57;;;9.90;99.90;;;;;;5052568;28;20150;-63
2022/12/30 17:40:47;;;;;;;8.43;5.18;;;9.90;99.90;;;;;;5052604;28;20111;-63
2022/12/30 17:43:14;;;;;;;8.35;5.75;;;9.90;99.90;;;;;;5058434;28;20028;-64
2022/12/30 17:45:40;;;;;;;7.70;5.20;;;9.90;99.90;;;;;;5037195;28;20074;-63
2022/12/30 17:48:13;;;;;;;13.38;8.60;;;10.00;99.90;;;;;;5034970;28;20021;-62
2022/12/30 17:50:40;;;;;;;8.65;6.13;;;10.00;99.90;;;;;;5051563;28;20021;-63
2022/12/30 17:53:05;;;;;;;8.05;5.50;;;10.10;99.90;;;;;;5058601;28;20066;-62
2022/12/30 17:55:31;;;;;;;8.63;5.68;;;10.10;99.90;;;;;;5053828;28;20115;-62
2022/12/30 17:57:56;;;;;;;8.50;5.40;;;10.20;99.90;;;;;;5057900;28;20096;-62
2022/12/30 18:00:22;;;;;;;11.23;8.30;;;10.30;99.90;;;;;;5071459;28;20027;-61
2022/12/30 18:02:48;;;;;;;8.20;5.93;;;10.30;99.90;;;;;;5036651;28;20032;-62
2022/12/30 18:05:14;;;;;;;9.73;6.90;;;10.40;99.90;;;;;;5052906;28;20425;-61
2022/12/30 18:07:40;;;;;;;11.88;7.82;;;10.50;99.90;;;;;;5040489;28;20107;-62
2022/12/30 18:10:06;;;;;;;10.60;7.00;;;10.60;99.90;;;;;;5042546;28;20245;-62
2022/12/30 18:12:32;;;;;;;8.80;6.00;;;10.60;99.90;;;;;;5059738;28;20481;-62
2022/12/30 18:14:58;;;;;;;13.73;9.13;;;10.60;99.90;;;;;;5055844;28;20108;-63
2022/12/30 18:17:24;;;;;;;29.80;17.55;;;10.70;99.90;;;;;;5058377;28;21267;-63
2022/12/30 18:19:49;;;;;;;15.68;10.18;;;10.70;99.90;;;;;;5071755;28;20500;-62
2022/12/30 18:22:15;;;;;;;11.93;8.25;;;10.70;99.90;;;;;;5071170;28;20164;-62
2022/12/30 18:24:41;;;;;;;9.02;5.88;;;10.80;99.90;;;;;;5070358;28;20021;-61
2022/12/30 18:27:07;;;;;;;10.05;6.68;;;10.80;99.90;;;;;;5071255;28;20135;-61
2022/12/30 18:29:33;;;;;;;10.07;6.75;;;10.90;99.90;;;;;;5069046;28;20835;-61
2022/12/30 18:31:58;;;;;;;10.18;6.82;;;10.90;99.90;;;;;;5057947;28;20013;-61
2022/12/30 18:34:24;;;;;;;25.05;14.23;;;11.00;99.90;;;;;;5042465;28;20025;-62
2022/12/30 18:36:50;;;;;;;26.00;14.35;;;11.00;99.90;;;;;;5053342;28;20048;-62
2022/12/30 18:39:15;;;;;;;13.13;9.50;;;11.10;99.90;;;;;;5035913;28;20033;-63
2022/12/30 18:41:41;;;;;;;11.20;7.05;;;11.20;99.90;;;;;;5050500;28;20504;-62
2022/12/30 18:44:09;;;;;;;8.48;6.13;;;11.20;99.90;;;;;;5053854;28;20017;-63
2022/12/30 18:46:35;;;;;;;14.05;7.55;;;11.20;99.90;;;;;;5058694;28;20037;-62
2022/12/30 18:49:04;;;;;;;8.35;6.18;;;11.30;99.90;;;;;;5033698;28;20031;-62
2022/12/30 18:51:32;;;;;;;7.93;6.00;;;11.30;99.90;;;;;;5039773;28;20081;-62
2022/12/30 18:54:07;;;;;;;11.07;6.55;;;11.40;99.90;;;;;;5086645;28;20545;-62
2022/12/30 18:56:34;;;;;;;9.88;6.50;;;11.40;99.90;;;;;;5045608;28;20535;-63
2022/12/30 18:59:00;;;;;;;10.07;6.78;;;11.50;99.90;;;;;;5054414;28;20021;-63
2022/12/30 19:01:34;;;;;;;13.07;8.02;;;11.50;99.90;;;;;;5070286;28;20055;-64
2022/12/30 19:04:02;;;;;;;11.63;7.55;;;11.60;99.90;;;;;;5050356;28;20392;-63
2022/12/30 19:06:31;;;;;;;11.43;7.38;;;11.60;99.90;;;;;;5049679;28;20033;-63
2022/12/30 19:08:57;;;;;;;12.75;7.80;;;11.60;99.90;;;;;;5055300;28;20092;-64
2022/12/30 19:11:24;;;;;;;11.15;7.18;;;11.60;99.90;;;;;;5063412;28;20063;-63
2022/12/30 19:13:53;;;;;;;10.70;6.85;;;11.70;99.90;;;;;;5077459;28;20043;-62
2022/12/30 19:16:21;;;;;;;11.60;7.22;;;11.70;99.90;;;;;;5063018;28;20039;-62
2022/12/30 19:18:48;;;;;;;10.10;7.20;;;11.70;99.90;;;;;;5037985;28;20446;-63
2022/12/30 19:21:20;;;;;;;11.57;7.30;;;11.70;99.90;;;;;;5064395;28;20028;-62
2022/12/30 19:23:47;;;;;;;9.00;6.70;;;11.70;99.90;;;;;;5044129;28;20032;-63
2022/12/30 19:26:13;;;;;;;11.55;7.43;;;11.80;99.90;;;;;;5052297;28;20020;-65
2022/12/30 19:28:40;;;;;;;11.65;7.60;;;11.80;99.90;;;;;;5052355;28;20016;-64
2022/12/30 19:31:14;;;;;;;12.15;7.22;;;11.90;99.90;;;;;;5062906;28;20025;-65
2022/12/30 19:33:40;;;;;;;11.02;7.35;;;11.90;99.90;;;;;;5032668;28;20036;-64
2022/12/30 19:36:09;;;;;;;11.38;6.40;;;11.90;99.90;;;;;;5049930;28;20100;-65
2022/12/30 19:38:35;;;;;;;9.45;6.20;;;11.90;99.90;;;;;;5050338;28;20017;-64
2022/12/30 19:41:00;;;;;;;24.33;15.70;;;11.90;99.90;;;;;;5032147;28;20417;-64
2022/12/30 19:43:26;;;;;;;18.02;11.50;;;11.90;99.90;;;;;;5049300;28;20469;-64
2022/12/30 19:45:52;;;;;;;10.38;6.65;;;11.90;99.90;;;;;;5051529;28;20033;-64
2022/12/30 19:48:18;;;;;;;8.23;5.60;;;12.00;99.90;;;;;;5059642;28;20026;-64
2022/12/30 19:50:43;;;;;;;11.70;5.40;;;12.00;99.90;;;;;;5050459;28;20025;-63
2022/12/30 19:53:10;;;;;;;10.63;4.70;;;12.10;99.90;;;;;;5065740;28;20040;-64
2022/12/30 19:55:40;;;;;;;9.40;4.30;;;12.10;99.90;;;;;;5052832;28;20440;-66
2022/12/30 19:58:07;;;;;;;5.97;3.72;;;12.20;99.90;;;;;;5058804;28;20103;-65
2022/12/30 20:00:34;;;;;;;6.10;3.72;;;12.20;99.90;;;;;;5047808;28;20028;-64
2022/12/30 20:03:00;;;;;;;4.53;2.90;;;12.30;99.90;;;;;;5058670;28;20036;-63
2022/12/30 20:05:25;;;;;;;4.78;2.53;;;12.30;99.90;;;;;;5063089;28;20017;-62
2022/12/30 20:07:51;;;;;;;4.63;2.90;;;12.40;99.90;;;;;;5054914;28;20017;-64
2022/12/30 20:10:16;;;;;;;3.55;2.53;;;12.40;99.90;;;;;;5055581;28;20028;-63
2022/12/30 20:12:42;;;;;;;10.45;5.55;;;12.40;99.90;;;;;;5050801;28;20052;-63
2022/12/30 20:15:09;;;;;;;4.70;2.88;;;12.50;99.90;;;;;;5057287;28;20032;-63
2022/12/30 20:17:34;;;;;;;5.50;2.28;;;12.40;99.90;;;;;;5070991;28;20024;-63
2022/12/30 20:20:00;;;;;;;4.22;2.85;;;12.50;99.90;;;;;;5071520;28;20024;-63